Bei Facebook empfehlenBei Twitter postenGoogle plusPinterest

Das Wetter im Erzgebirge am 08.08.2017

Wetter und Klima am 08.08.2017 Holzhau im Erzgebirge (630m ü.NN)
Letzte gemessene Temperatur und Uhrzeit der Messung23:45:00 Uhr17.80 °C
Temperatur (Maximum / Höchstwert) und Uhrzeit der Messung17:15:00 Uhr24.50 °C
Temperatur (Minimum / Tiefstwert) und Uhrzeit der Messung00:30:009.00 °C
Errechneter Absolutwert der Temperaturschwankungen zwischen Tmin und Tmax des Tages15.50 K
Errechnete Tagesmitteltemperatur17.41979 °C
Gesamt - Niederschlag des Tages (in flüssiger Form)0.00 Liter / m²
Luftdruck (Maximum / Höchstwert) und Zeitpunkt der Messung00:30:00 Uhr1015.90 hPa
Luftdruck (Minimum / Tiefstwert) und Zeitpunkt der Messung12:30:00 Uhr1009.50 hPa
Errechneter Absolutwert der Luftdruckschwankungen des Tages6.40 hPa
Höchste gemessene Windgeschwindigkeit und Uhrzeit der Messung08:45:00 Uhr72.72 km/h
Errechnete Windhäufigkeit in Relation zu den Messwerten des Tages53.12500 %
Niedrigste Windkühle (Windchill) und Zeitpunkt der Messung00:30:00 Uhr9.00 °C
Taupunkt (Maximum / Höchstwert) und Uhrzeit der Messung14:30:00 Uhr14.70 °C
Taupunkt (Minimum / Tiefstwert) und Uhrzeit der Messung00:30:005.90 °C
Anzahl der automatisch eingelesenen Messwerte 96

Detaillierte Wetter- und Klima- Messwerte für den 08.08.2017 in Holzhau im Erzgebirge (630m ü.NN)
ZeitTemperaturLuftdruckRel. LuftfeuchteWindWindrichtungWindchillTaupunktNiederschlag l/m²
23:45:0017.80 °C1012.10 hPa75.00 %13.30 °C 
23:30:0017.80 °C1011.90 hPa74.00 %19.44 km/hSW18.50 °C13.10 °C 
23:15:0017.60 °C1011.30 hPa75.00 %13.10 °C 
23:00:0017.60 °C1011.40 hPa74.00 %25.92 km/hOSO18.00 °C12.90 °C 
22:45:0017.80 °C1011.70 hPa72.00 %12.70 °C 
22:30:0018.40 °C1011.80 hPa70.00 %12.80 °C 
22:15:0018.40 °C1011.40 hPa70.00 %12.80 °C 
22:00:0018.40 °C1011.50 hPa69.00 %27.36 km/hOSO18.90 °C12.60 °C 
21:45:0018.30 °C1011.40 hPa70.00 %12.70 °C 
21:30:0018.10 °C1011.50 hPa69.00 %12.30 °C 
21:15:0018.20 °C1011.40 hPa69.00 %33.84 km/hOSO18.50 °C12.40 °C 
21:00:0018.40 °C1011.30 hPa67.00 %12.20 °C 
20:45:0018.80 °C1011.00 hPa66.00 %12.30 °C 
20:30:0019.30 °C1010.80 hPa64.00 %24.48 km/hOSO20.10 °C12.30 °C 
20:15:0019.90 °C1010.70 hPa62.00 %2.52 km/hOSO19.90 °C12.40 °C 
20:00:0020.60 °C1010.70 hPa61.00 %10.44 km/hOSO20.60 °C12.80 °C 
19:45:0021.10 °C1010.80 hPa60.00 %6.48 km/hNNO21.10 °C13.00 °C 
19:30:0021.40 °C1010.70 hPa59.00 %9.00 km/hSO21.40 °C13.10 °C 
19:15:0021.90 °C1010.60 hPa57.00 %10.44 km/hOSO21.90 °C13.00 °C 
19:00:0022.60 °C1010.50 hPa55.00 %6.48 km/hONO22.60 °C13.10 °C 
18:45:0023.20 °C1010.50 hPa53.00 %13.10 °C 
18:30:0023.50 °C1010.60 hPa53.00 %32.40 km/hSSO24.80 °C13.40 °C 
18:15:0023.70 °C1010.50 hPa53.00 %20.88 km/hSSO25.20 °C13.60 °C 
18:00:0023.90 °C1010.60 hPa51.00 %13.20 °C 
17:45:0023.80 °C1010.60 hPa51.00 %18.00 km/hS25.40 °C13.10 °C 
17:30:0024.30 °C1010.50 hPa51.00 %32.40 km/hOSO25.80 °C13.50 °C 
17:15:0024.50 °C1010.70 hPa53.00 %21.96 km/hOSO26.10 °C14.30 °C 
17:00:0024.30 °C1010.60 hPa52.00 %34.92 km/hSO25.70 °C13.80 °C 
16:45:0024.10 °C1010.50 hPa52.00 %18.00 km/hS25.70 °C13.60 °C 
16:30:0024.10 °C1010.30 hPa52.00 %13.60 °C 
16:15:0023.80 °C1010.20 hPa53.00 %30.96 km/hSSO25.20 °C13.60 °C 
16:00:0023.00 °C1010.40 hPa54.00 %7.92 km/hSSO23.00 °C13.20 °C 
15:45:0023.00 °C1010.10 hPa54.00 %47.88 km/hSO24.00 °C13.20 °C 
15:30:0023.40 °C1010.00 hPa53.00 %50.40 km/hSO24.50 °C13.30 °C 
15:15:0023.30 °C1009.90 hPa56.00 %1.44 km/hSSO23.30 °C14.00 °C 
15:00:0023.50 °C1010.20 hPa55.00 %13.90 °C 
14:45:0023.60 °C1010.40 hPa56.00 %9.00 km/hOSO23.60 °C14.30 °C 
14:30:0022.90 °C1010.00 hPa60.00 %14.70 °C 
14:15:0022.30 °C1010.10 hPa59.00 %50.40 km/hS23.10 °C13.90 °C 
14:00:0022.30 °C1009.90 hPa59.00 %13.90 °C 
13:45:0022.10 °C1009.90 hPa60.00 %14.00 °C 
13:30:0021.80 °C1009.90 hPa61.00 %13.90 °C 
13:15:0021.70 °C1009.70 hPa62.00 %40.32 km/hSSO22.50 °C14.10 °C 
13:00:0021.30 °C1009.60 hPa63.00 %40.32 km/hO22.10 °C14.00 °C 
12:45:0021.20 °C1009.60 hPa64.00 %14.10 °C 
12:30:0020.80 °C1009.50 hPa65.00 %14.00 °C 
12:15:0020.50 °C1009.60 hPa66.00 %32.40 km/hOSO21.30 °C13.90 °C 
12:00:0019.90 °C1009.90 hPa68.00 %62.28 km/hSSO20.00 °C13.80 °C 
11:45:0019.60 °C1010.10 hPa66.00 %13.10 °C 
11:30:0019.90 °C1010.40 hPa66.00 %64.80 km/hSSO20.00 °C13.40 °C 
11:15:0019.90 °C1010.70 hPa66.00 %20.88 km/hOSO20.90 °C13.40 °C 
11:00:0019.90 °C1010.80 hPa66.00 %50.40 km/hSSO20.20 °C13.40 °C 
10:45:0019.30 °C1010.70 hPa68.00 %13.20 °C 
10:30:0019.10 °C1010.90 hPa67.00 %42.84 km/hOSO19.30 °C12.80 °C 
10:15:0018.70 °C1010.90 hPa68.00 %20.88 km/hSO19.50 °C12.70 °C 
10:00:0018.50 °C1010.80 hPa69.00 %12.70 °C 
09:45:0017.90 °C1011.00 hPa71.00 %21.96 km/hNNO18.50 °C12.60 °C 
09:30:0017.20 °C1011.30 hPa73.00 %37.44 km/hO17.20 °C12.30 °C 
09:15:0016.60 °C1011.20 hPa74.00 %23.40 km/hO17.00 °C12.00 °C 
09:00:0016.20 °C1011.30 hPa74.00 %46.80 km/hNNO15.70 °C11.60 °C 
08:45:0016.10 °C1011.50 hPa74.00 %72.72 km/hSO15.10 °C11.50 °C 
08:30:0016.30 °C1011.60 hPa74.00 %11.70 °C 
08:15:0016.10 °C1012.10 hPa74.00 %34.92 km/hO16.00 °C11.50 °C 
08:00:0015.50 °C1012.20 hPa74.00 %10.90 °C 
07:45:0014.90 °C1012.40 hPa75.00 %10.50 °C 
07:30:0014.10 °C1012.50 hPa78.00 %23.40 km/hNNW14.10 °C10.30 °C 
07:15:0012.60 °C1012.70 hPa81.00 %9.40 °C 
07:00:0012.40 °C1012.70 hPa81.00 %9.20 °C 
06:45:0012.10 °C1012.60 hPa82.00 %9.10 °C 
06:30:0011.90 °C1012.60 hPa82.00 %8.90 °C 
06:15:0011.80 °C1012.70 hPa82.00 %18.00 km/hSO11.80 °C8.80 °C 
06:00:0011.60 °C1013.10 hPa82.00 %38.88 km/hOSO10.40 °C8.60 °C 
05:45:0011.60 °C1013.20 hPa82.00 %8.60 °C 
05:30:0011.60 °C1013.30 hPa82.00 %12.96 km/hOSO11.60 °C8.60 °C 
05:15:0011.50 °C1013.50 hPa81.00 %6.48 km/hONO11.50 °C8.40 °C 
05:00:0011.40 °C1013.40 hPa81.00 %8.30 °C 
04:45:0011.40 °C1013.80 hPa81.00 %8.30 °C 
04:30:0011.30 °C1013.70 hPa81.00 %8.20 °C 
04:15:0011.30 °C1014.00 hPa80.00 %10.44 km/hOSO11.30 °C8.00 °C 
04:00:0011.30 °C1014.10 hPa80.00 %8.00 °C 
03:45:0011.40 °C1014.30 hPa79.00 %7.90 °C 
03:30:0011.60 °C1014.30 hPa78.00 %7.90 °C 
03:15:0011.70 °C1014.40 hPa78.00 %24.48 km/hSO11.20 °C8.00 °C 
03:00:0011.80 °C1014.60 hPa78.00 %5.04 km/hSO11.80 °C8.10 °C 
02:45:0011.80 °C1014.90 hPa78.00 %8.10 °C 
02:30:0011.50 °C1015.10 hPa78.00 %19.44 km/hOSO11.30 °C7.80 °C 
02:15:0011.90 °C1015.30 hPa77.00 %8.00 °C 
02:00:0011.80 °C1015.30 hPa78.00 %12.96 km/hSO11.80 °C8.10 °C 
01:45:0011.20 °C1015.50 hPa80.00 %7.90 °C 
01:30:0010.60 °C1015.60 hPa82.00 %7.70 °C 
01:15:009.60 °C1015.60 hPa82.00 %6.70 °C 
01:00:009.30 °C1015.80 hPa82.00 %6.40 °C 
00:45:009.10 °C1015.70 hPa82.00 %6.20 °C 
00:30:009.00 °C1015.90 hPa81.00 %5.90 °C 
00:15:009.10 °C1015.80 hPa81.00 %9.00 km/hOSO9.10 °C6.00 °C 
00:00:009.10 °C1015.80 hPa81.00 %6.00 °C 

Permanenter Link zu dieser Seite: Wetter im Erzgebirge am 08.08.2017
Performance-Info: Die Erstellung der Seite / Statistik(en) / Tabelle(n) erforderte 5 Datenbankserver-Abfrage(n) und dauerte 123 Millisekunden. (Dieser Messwert ist von der Gesamt-Auslastung des Servers abhängig.)
Erzgebirge - Wetter | Erzgebirge - Wetter (Mobilgeräte) | Komplette Klimadatenbank